sensor_id;sensor_type;location;lat;lon;timestamp;P1;durP1;ratioP1;P2;durP2;ratioP2
4555;SDS011;2290;48.674;9.018;2023-03-01T00:00:38;12.30;;;5.60;;
4555;SDS011;2290;48.674;9.018;2023-03-01T00:03:03;10.20;;;5.90;;
4555;SDS011;2290;48.674;9.018;2023-03-01T00:05:29;10.73;;;5.97;;
4555;SDS011;2290;48.674;9.018;2023-03-01T00:07:54;13.60;;;5.97;;
4555;SDS011;2290;48.674;9.018;2023-03-01T00:10:20;10.37;;;5.47;;
4555;SDS011;2290;48.674;9.018;2023-03-01T00:12:47;14.10;;;6.47;;
4555;SDS011;2290;48.674;9.018;2023-03-01T00:15:12;10.67;;;5.90;;
4555;SDS011;2290;48.674;9.018;2023-03-01T00:17:38;10.90;;;5.83;;
4555;SDS011;2290;48.674;9.018;2023-03-01T00:20:03;9.40;;;5.67;;
4555;SDS011;2290;48.674;9.018;2023-03-01T00:22:33;12.07;;;5.97;;
4555;SDS011;2290;48.674;9.018;2023-03-01T00:24:58;13.00;;;6.30;;
4555;SDS011;2290;48.674;9.018;2023-03-01T00:27:27;10.50;;;5.77;;
4555;SDS011;2290;48.674;9.018;2023-03-01T00:29:52;11.17;;;6.93;;
4555;SDS011;2290;48.674;9.018;2023-03-01T00:32:18;8.87;;;4.93;;
4555;SDS011;2290;48.674;9.018;2023-03-01T00:34:43;11.70;;;5.40;;
4555;SDS011;2290;48.674;9.018;2023-03-01T00:37:19;12.90;;;5.30;;
4555;SDS011;2290;48.674;9.018;2023-03-01T00:39:45;12.77;;;6.13;;
4555;SDS011;2290;48.674;9.018;2023-03-01T00:42:11;10.73;;;5.97;;
4555;SDS011;2290;48.674;9.018;2023-03-01T00:44:36;12.73;;;6.30;;
4555;SDS011;2290;48.674;9.018;2023-03-01T00:47:02;9.83;;;5.50;;
4555;SDS011;2290;48.674;9.018;2023-03-01T00:49:27;15.93;;;6.70;;
4555;SDS011;2290;48.674;9.018;2023-03-01T00:51:53;13.20;;;5.60;;
4555;SDS011;2290;48.674;9.018;2023-03-01T00:54:19;14.00;;;6.10;;
4555;SDS011;2290;48.674;9.018;2023-03-01T00:56:44;12.13;;;5.73;;
4555;SDS011;2290;48.674;9.018;2023-03-01T00:59:10;16.27;;;5.90;;
4555;SDS011;2290;48.674;9.018;2023-03-01T01:01:36;15.63;;;6.83;;
4555;SDS011;2290;48.674;9.018;2023-03-01T01:04:04;14.53;;;6.80;;
4555;SDS011;2290;48.674;9.018;2023-03-01T01:06:32;12.73;;;5.93;;
4555;SDS011;2290;48.674;9.018;2023-03-01T01:09:00;13.67;;;6.20;;
4555;SDS011;2290;48.674;9.018;2023-03-01T01:11:28;16.80;;;6.93;;
4555;SDS011;2290;48.674;9.018;2023-03-01T01:13:55;14.67;;;6.13;;
4555;SDS011;2290;48.674;9.018;2023-03-01T01:16:22;13.90;;;5.90;;
4555;SDS011;2290;48.674;9.018;2023-03-01T01:18:49;11.17;;;6.40;;
4555;SDS011;2290;48.674;9.018;2023-03-01T01:21:16;10.20;;;6.20;;
4555;SDS011;2290;48.674;9.018;2023-03-01T01:23:44;10.33;;;5.83;;
4555;SDS011;2290;48.674;9.018;2023-03-01T01:26:12;11.27;;;6.27;;
4555;SDS011;2290;48.674;9.018;2023-03-01T01:28:40;14.93;;;6.57;;
4555;SDS011;2290;48.674;9.018;2023-03-01T01:31:05;19.33;;;6.67;;
4555;SDS011;2290;48.674;9.018;2023-03-01T01:33:31;13.13;;;5.40;;
4555;SDS011;2290;48.674;9.018;2023-03-01T01:35:57;20.07;;;6.80;;
4555;SDS011;2290;48.674;9.018;2023-03-01T01:38:23;10.47;;;5.00;;
4555;SDS011;2290;48.674;9.018;2023-03-01T01:40:50;17.87;;;6.10;;
4555;SDS011;2290;48.674;9.018;2023-03-01T01:43:23;10.57;;;5.63;;
4555;SDS011;2290;48.674;9.018;2023-03-01T01:46:01;18.30;;;6.80;;
4555;SDS011;2290;48.674;9.018;2023-03-01T01:48:34;10.60;;;5.70;;
4555;SDS011;2290;48.674;9.018;2023-03-01T01:51:17;14.17;;;6.30;;
4555;SDS011;2290;48.674;9.018;2023-03-01T01:53:48;13.30;;;5.93;;
4555;SDS011;2290;48.674;9.018;2023-03-01T01:56:18;14.80;;;6.13;;
4555;SDS011;2290;48.674;9.018;2023-03-01T01:58:45;14.00;;;7.10;;
4555;SDS011;2290;48.674;9.018;2023-03-01T02:01:12;10.53;;;5.23;;
4555;SDS011;2290;48.674;9.018;2023-03-01T02:03:38;11.73;;;6.07;;
4555;SDS011;2290;48.674;9.018;2023-03-01T02:06:12;8.50;;;4.70;;
4555;SDS011;2290;48.674;9.018;2023-03-01T02:08:43;10.70;;;5.30;;
4555;SDS011;2290;48.674;9.018;2023-03-01T02:11:12;14.30;;;5.83;;
4555;SDS011;2290;48.674;9.018;2023-03-01T02:13:41;9.87;;;5.67;;
4555;SDS011;2290;48.674;9.018;2023-03-01T02:16:11;12.10;;;6.00;;
4555;SDS011;2290;48.674;9.018;2023-03-01T02:18:38;15.73;;;6.10;;
4555;SDS011;2290;48.674;9.018;2023-03-01T02:23:49;13.20;;;5.83;;
4555;SDS011;2290;48.674;9.018;2023-03-01T02:28:57;10.73;;;5.70;;
4555;SDS011;2290;48.674;9.018;2023-03-01T02:31:23;10.77;;;6.30;;
4555;SDS011;2290;48.674;9.018;2023-03-01T02:34:08;13.23;;;6.47;;
4555;SDS011;2290;48.674;9.018;2023-03-01T02:36:40;10.00;;;5.50;;
4555;SDS011;2290;48.674;9.018;2023-03-01T02:39:11;10.70;;;5.77;;
4555;SDS011;2290;48.674;9.018;2023-03-01T02:41:46;9.27;;;5.40;;
4555;SDS011;2290;48.674;9.018;2023-03-01T02:44:14;9.17;;;5.43;;
4555;SDS011;2290;48.674;9.018;2023-03-01T02:46:44;14.23;;;7.23;;
4555;SDS011;2290;48.674;9.018;2023-03-01T02:49:17;12.20;;;5.90;;
4555;SDS011;2290;48.674;9.018;2023-03-01T02:51:48;13.57;;;6.00;;
4555;SDS011;2290;48.674;9.018;2023-03-01T02:56:55;13.87;;;6.80;;
4555;SDS011;2290;48.674;9.018;2023-03-01T02:59:22;14.90;;;6.63;;
4555;SDS011;2290;48.674;9.018;2023-03-01T03:01:53;12.10;;;5.77;;
4555;SDS011;2290;48.674;9.018;2023-03-01T03:04:21;14.40;;;6.53;;
4555;SDS011;2290;48.674;9.018;2023-03-01T03:06:48;12.80;;;6.67;;
4555;SDS011;2290;48.674;9.018;2023-03-01T03:09:14;20.17;;;7.07;;
4555;SDS011;2290;48.674;9.018;2023-03-01T03:11:40;15.20;;;6.20;;
4555;SDS011;2290;48.674;9.018;2023-03-01T03:14:08;11.20;;;6.33;;
4555;SDS011;2290;48.674;9.018;2023-03-01T03:16:44;13.53;;;6.30;;
4555;SDS011;2290;48.674;9.018;2023-03-01T03:19:12;13.47;;;6.20;;
4555;SDS011;2290;48.674;9.018;2023-03-01T03:21:39;12.77;;;6.27;;
4555;SDS011;2290;48.674;9.018;2023-03-01T03:24:05;14.00;;;5.97;;
4555;SDS011;2290;48.674;9.018;2023-03-01T03:26:30;11.43;;;5.70;;
4555;SDS011;2290;48.674;9.018;2023-03-01T03:28:56;17.40;;;6.40;;
4555;SDS011;2290;48.674;9.018;2023-03-01T03:31:22;14.70;;;6.30;;
4555;SDS011;2290;48.674;9.018;2023-03-01T03:33:48;14.83;;;7.03;;
4555;SDS011;2290;48.674;9.018;2023-03-01T03:36:18;15.17;;;7.50;;
4555;SDS011;2290;48.674;9.018;2023-03-01T03:38:46;16.43;;;7.10;;
4555;SDS011;2290;48.674;9.018;2023-03-01T03:41:13;13.07;;;5.90;;
4555;SDS011;2290;48.674;9.018;2023-03-01T03:43:40;14.10;;;6.70;;
4555;SDS011;2290;48.674;9.018;2023-03-01T03:46:07;14.73;;;7.37;;
4555;SDS011;2290;48.674;9.018;2023-03-01T03:48:38;13.90;;;6.73;;
4555;SDS011;2290;48.674;9.018;2023-03-01T03:51:06;12.90;;;5.93;;
4555;SDS011;2290;48.674;9.018;2023-03-01T03:53:34;16.50;;;6.70;;
4555;SDS011;2290;48.674;9.018;2023-03-01T03:56:00;12.47;;;6.00;;
4555;SDS011;2290;48.674;9.018;2023-03-01T03:58:25;14.80;;;7.53;;
4555;SDS011;2290;48.674;9.018;2023-03-01T04:00:52;14.97;;;6.07;;
4555;SDS011;2290;48.674;9.018;2023-03-01T04:03:21;14.20;;;6.50;;
4555;SDS011;2290;48.674;9.018;2023-03-01T04:05:48;19.30;;;6.97;;
4555;SDS011;2290;48.674;9.018;2023-03-01T04:08:15;14.93;;;6.53;;
4555;SDS011;2290;48.674;9.018;2023-03-01T04:10:46;12.03;;;6.43;;
4555;SDS011;2290;48.674;9.018;2023-03-01T04:13:16;15.27;;;6.63;;
4555;SDS011;2290;48.674;9.018;2023-03-01T04:15:50;12.17;;;7.00;;
4555;SDS011;2290;48.674;9.018;2023-03-01T04:18:18;18.67;;;7.30;;
4555;SDS011;2290;48.674;9.018;2023-03-01T04:20:45;19.93;;;6.73;;
4555;SDS011;2290;48.674;9.018;2023-03-01T04:23:13;12.93;;;7.47;;
4555;SDS011;2290;48.674;9.018;2023-03-01T04:28:27;12.20;;;7.00;;
4555;SDS011;2290;48.674;9.018;2023-03-01T04:31:07;17.33;;;7.17;;
4555;SDS011;2290;48.674;9.018;2023-03-01T04:33:38;15.67;;;6.60;;
4555;SDS011;2290;48.674;9.018;2023-03-01T04:36:05;14.97;;;6.47;;
4555;SDS011;2290;48.674;9.018;2023-03-01T04:38:33;15.60;;;7.23;;
4555;SDS011;2290;48.674;9.018;2023-03-01T04:40:59;14.87;;;6.87;;
4555;SDS011;2290;48.674;9.018;2023-03-01T04:43:25;15.63;;;7.00;;
4555;SDS011;2290;48.674;9.018;2023-03-01T04:45:51;12.87;;;7.20;;
4555;SDS011;2290;48.674;9.018;2023-03-01T04:48:16;16.70;;;7.03;;
4555;SDS011;2290;48.674;9.018;2023-03-01T04:50:43;22.00;;;7.23;;
4555;SDS011;2290;48.674;9.018;2023-03-01T04:53:09;15.53;;;6.43;;
4555;SDS011;2290;48.674;9.018;2023-03-01T04:55:34;16.77;;;7.17;;
4555;SDS011;2290;48.674;9.018;2023-03-01T04:58:00;14.70;;;7.03;;
4555;SDS011;2290;48.674;9.018;2023-03-01T05:00:25;16.97;;;7.73;;
4555;SDS011;2290;48.674;9.018;2023-03-01T05:02:59;15.67;;;7.63;;
4555;SDS011;2290;48.674;9.018;2023-03-01T05:05:26;13.80;;;6.03;;
4555;SDS011;2290;48.674;9.018;2023-03-01T05:08:03;15.43;;;7.07;;
4555;SDS011;2290;48.674;9.018;2023-03-01T05:10:34;15.17;;;7.50;;
4555;SDS011;2290;48.674;9.018;2023-03-01T05:20:41;16.43;;;7.77;;
4555;SDS011;2290;48.674;9.018;2023-03-01T05:23:06;15.07;;;7.13;;
4555;SDS011;2290;48.674;9.018;2023-03-01T05:25:33;14.73;;;7.00;;
4555;SDS011;2290;48.674;9.018;2023-03-01T05:28:01;16.13;;;7.07;;
4555;SDS011;2290;48.674;9.018;2023-03-01T05:30:32;16.13;;;7.70;;
4555;SDS011;2290;48.674;9.018;2023-03-01T05:32:58;15.27;;;7.90;;
4555;SDS011;2290;48.674;9.018;2023-03-01T05:35:24;14.67;;;6.80;;
4555;SDS011;2290;48.674;9.018;2023-03-01T05:37:49;15.80;;;7.80;;
4555;SDS011;2290;48.674;9.018;2023-03-01T05:40:17;14.80;;;7.57;;
4555;SDS011;2290;48.674;9.018;2023-03-01T05:42:48;19.63;;;7.70;;
4555;SDS011;2290;48.674;9.018;2023-03-01T05:45:17;18.90;;;7.43;;
4555;SDS011;2290;48.674;9.018;2023-03-01T05:47:46;14.67;;;7.47;;
4555;SDS011;2290;48.674;9.018;2023-03-01T05:50:25;19.80;;;8.13;;
4555;SDS011;2290;48.674;9.018;2023-03-01T05:53:19;12.03;;;6.50;;
4555;SDS011;2290;48.674;9.018;2023-03-01T05:56:21;15.47;;;6.53;;
4555;SDS011;2290;48.674;9.018;2023-03-01T05:59:01;15.93;;;8.00;;
4555;SDS011;2290;48.674;9.018;2023-03-01T06:04:15;18.40;;;7.80;;
4555;SDS011;2290;48.674;9.018;2023-03-01T06:06:50;16.83;;;6.90;;
4555;SDS011;2290;48.674;9.018;2023-03-01T06:09:27;15.10;;;7.00;;
4555;SDS011;2290;48.674;9.018;2023-03-01T06:12:23;14.37;;;6.90;;
4555;SDS011;2290;48.674;9.018;2023-03-01T06:14:59;17.57;;;7.57;;
4555;SDS011;2290;48.674;9.018;2023-03-01T06:17:26;12.23;;;6.77;;
4555;SDS011;2290;48.674;9.018;2023-03-01T06:19:54;18.77;;;8.13;;
4555;SDS011;2290;48.674;9.018;2023-03-01T06:22:19;17.87;;;8.30;;
4555;SDS011;2290;48.674;9.018;2023-03-01T06:24:45;17.33;;;7.40;;
4555;SDS011;2290;48.674;9.018;2023-03-01T06:27:10;11.57;;;6.43;;
4555;SDS011;2290;48.674;9.018;2023-03-01T06:29:37;14.43;;;7.23;;
4555;SDS011;2290;48.674;9.018;2023-03-01T06:32:03;14.27;;;7.37;;
4555;SDS011;2290;48.674;9.018;2023-03-01T06:34:28;13.17;;;6.67;;
4555;SDS011;2290;48.674;9.018;2023-03-01T06:36:54;18.40;;;8.03;;
4555;SDS011;2290;48.674;9.018;2023-03-01T06:39:20;17.40;;;8.00;;
4555;SDS011;2290;48.674;9.018;2023-03-01T06:41:45;21.23;;;8.03;;
4555;SDS011;2290;48.674;9.018;2023-03-01T06:44:11;18.27;;;6.93;;
4555;SDS011;2290;48.674;9.018;2023-03-01T06:46:37;18.47;;;8.00;;
4555;SDS011;2290;48.674;9.018;2023-03-01T06:49:04;16.20;;;7.53;;
4555;SDS011;2290;48.674;9.018;2023-03-01T06:51:32;14.13;;;7.73;;
4555;SDS011;2290;48.674;9.018;2023-03-01T06:53:58;15.77;;;7.47;;
4555;SDS011;2290;48.674;9.018;2023-03-01T06:56:23;17.57;;;8.40;;
4555;SDS011;2290;48.674;9.018;2023-03-01T06:58:49;16.93;;;6.90;;
4555;SDS011;2290;48.674;9.018;2023-03-01T07:01:15;17.93;;;8.00;;
4555;SDS011;2290;48.674;9.018;2023-03-01T07:03:40;15.30;;;7.57;;
4555;SDS011;2290;48.674;9.018;2023-03-01T07:06:09;12.97;;;7.33;;
4555;SDS011;2290;48.674;9.018;2023-03-01T07:08:35;16.83;;;8.60;;
4555;SDS011;2290;48.674;9.018;2023-03-01T07:11:00;20.17;;;8.30;;
4555;SDS011;2290;48.674;9.018;2023-03-01T07:13:28;17.53;;;7.23;;
4555;SDS011;2290;48.674;9.018;2023-03-01T07:15:54;19.53;;;7.60;;
4555;SDS011;2290;48.674;9.018;2023-03-01T07:18:19;16.73;;;8.27;;
4555;SDS011;2290;48.674;9.018;2023-03-01T07:20:45;15.67;;;7.53;;
4555;SDS011;2290;48.674;9.018;2023-03-01T07:23:10;18.20;;;7.80;;
4555;SDS011;2290;48.674;9.018;2023-03-01T07:25:36;18.63;;;9.13;;
4555;SDS011;2290;48.674;9.018;2023-03-01T07:28:02;14.13;;;6.53;;
4555;SDS011;2290;48.674;9.018;2023-03-01T07:30:27;22.77;;;9.20;;
4555;SDS011;2290;48.674;9.018;2023-03-01T07:32:54;17.70;;;8.17;;
4555;SDS011;2290;48.674;9.018;2023-03-01T07:35:20;16.40;;;7.27;;
4555;SDS011;2290;48.674;9.018;2023-03-01T07:37:47;15.83;;;7.90;;
4555;SDS011;2290;48.674;9.018;2023-03-01T07:40:14;17.13;;;8.30;;
4555;SDS011;2290;48.674;9.018;2023-03-01T07:42:40;16.23;;;7.77;;
4555;SDS011;2290;48.674;9.018;2023-03-01T07:45:06;15.83;;;7.23;;
4555;SDS011;2290;48.674;9.018;2023-03-01T07:47:32;15.67;;;7.50;;
4555;SDS011;2290;48.674;9.018;2023-03-01T07:49:58;14.17;;;7.70;;
4555;SDS011;2290;48.674;9.018;2023-03-01T07:52:25;16.33;;;7.70;;
4555;SDS011;2290;48.674;9.018;2023-03-01T07:54:50;12.53;;;6.90;;
4555;SDS011;2290;48.674;9.018;2023-03-01T07:57:16;19.30;;;8.23;;
4555;SDS011;2290;48.674;9.018;2023-03-01T07:59:41;16.60;;;8.87;;
4555;SDS011;2290;48.674;9.018;2023-03-01T08:02:08;17.30;;;7.90;;
4555;SDS011;2290;48.674;9.018;2023-03-01T08:04:34;26.50;;;9.00;;
4555;SDS011;2290;48.674;9.018;2023-03-01T08:07:00;25.03;;;9.10;;
4555;SDS011;2290;48.674;9.018;2023-03-01T08:09:25;21.73;;;9.20;;
4555;SDS011;2290;48.674;9.018;2023-03-01T08:11:51;22.77;;;8.40;;
4555;SDS011;2290;48.674;9.018;2023-03-01T08:14:17;14.87;;;7.67;;
4555;SDS011;2290;48.674;9.018;2023-03-01T08:16:44;17.23;;;7.60;;
4555;SDS011;2290;48.674;9.018;2023-03-01T08:19:11;25.90;;;8.40;;
4555;SDS011;2290;48.674;9.018;2023-03-01T08:21:37;15.00;;;7.93;;
4555;SDS011;2290;48.674;9.018;2023-03-01T08:24:04;13.90;;;7.30;;
4555;SDS011;2290;48.674;9.018;2023-03-01T08:26:30;18.13;;;8.30;;
4555;SDS011;2290;48.674;9.018;2023-03-01T08:29:15;21.63;;;10.03;;
4555;SDS011;2290;48.674;9.018;2023-03-01T08:35:51;17.97;;;8.43;;
4555;SDS011;2290;48.674;9.018;2023-03-01T08:38:26;17.27;;;7.93;;
4555;SDS011;2290;48.674;9.018;2023-03-01T08:40:52;18.27;;;7.50;;
4555;SDS011;2290;48.674;9.018;2023-03-01T08:43:23;19.67;;;9.10;;
4555;SDS011;2290;48.674;9.018;2023-03-01T08:45:52;16.93;;;8.33;;
4555;SDS011;2290;48.674;9.018;2023-03-01T08:48:17;18.97;;;8.07;;
4555;SDS011;2290;48.674;9.018;2023-03-01T08:50:43;17.50;;;7.40;;
4555;SDS011;2290;48.674;9.018;2023-03-01T08:53:09;15.47;;;6.97;;
4555;SDS011;2290;48.674;9.018;2023-03-01T08:55:36;15.27;;;8.10;;
4555;SDS011;2290;48.674;9.018;2023-03-01T08:58:01;17.63;;;8.40;;
4555;SDS011;2290;48.674;9.018;2023-03-01T09:00:27;16.53;;;6.90;;
4555;SDS011;2290;48.674;9.018;2023-03-01T09:02:52;15.07;;;7.60;;
4555;SDS011;2290;48.674;9.018;2023-03-01T09:05:18;15.53;;;7.80;;
4555;SDS011;2290;48.674;9.018;2023-03-01T09:07:47;18.77;;;8.27;;
4555;SDS011;2290;48.674;9.018;2023-03-01T09:10:25;19.73;;;8.80;;
4555;SDS011;2290;48.674;9.018;2023-03-01T09:12:51;16.90;;;8.40;;
4555;SDS011;2290;48.674;9.018;2023-03-01T09:15:32;18.97;;;8.40;;
4555;SDS011;2290;48.674;9.018;2023-03-01T09:21:57;21.07;;;8.63;;
4555;SDS011;2290;48.674;9.018;2023-03-01T09:24:23;18.73;;;8.97;;
4555;SDS011;2290;48.674;9.018;2023-03-01T09:26:53;17.17;;;8.20;;
4555;SDS011;2290;48.674;9.018;2023-03-01T09:29:20;15.93;;;8.00;;
4555;SDS011;2290;48.674;9.018;2023-03-01T09:31:47;17.47;;;8.00;;
4555;SDS011;2290;48.674;9.018;2023-03-01T09:34:13;17.70;;;8.17;;
4555;SDS011;2290;48.674;9.018;2023-03-01T09:36:48;21.50;;;9.03;;
4555;SDS011;2290;48.674;9.018;2023-03-01T09:39:15;15.87;;;7.53;;
4555;SDS011;2290;48.674;9.018;2023-03-01T09:41:46;17.80;;;9.00;;
4555;SDS011;2290;48.674;9.018;2023-03-01T09:44:36;17.80;;;7.80;;
4555;SDS011;2290;48.674;9.018;2023-03-01T09:47:04;16.70;;;8.47;;
4555;SDS011;2290;48.674;9.018;2023-03-01T09:49:35;21.27;;;9.37;;
4555;SDS011;2290;48.674;9.018;2023-03-01T09:52:12;16.93;;;7.83;;
4555;SDS011;2290;48.674;9.018;2023-03-01T09:54:48;18.43;;;8.13;;
4555;SDS011;2290;48.674;9.018;2023-03-01T09:57:18;16.00;;;8.10;;
4555;SDS011;2290;48.674;9.018;2023-03-01T10:02:52;16.40;;;8.23;;
4555;SDS011;2290;48.674;9.018;2023-03-01T10:05:50;15.63;;;7.73;;
4555;SDS011;2290;48.674;9.018;2023-03-01T10:08:27;17.63;;;9.20;;
4555;SDS011;2290;48.674;9.018;2023-03-01T10:11:14;20.47;;;8.10;;
4555;SDS011;2290;48.674;9.018;2023-03-01T10:13:46;16.47;;;7.80;;
4555;SDS011;2290;48.674;9.018;2023-03-01T10:16:27;24.40;;;8.37;;
4555;SDS011;2290;48.674;9.018;2023-03-01T10:19:02;19.70;;;7.80;;
4555;SDS011;2290;48.674;9.018;2023-03-01T10:21:28;21.27;;;8.60;;
4555;SDS011;2290;48.674;9.018;2023-03-01T10:23:57;15.87;;;8.97;;
4555;SDS011;2290;48.674;9.018;2023-03-01T10:26:58;17.20;;;7.90;;
4555;SDS011;2290;48.674;9.018;2023-03-01T10:29:31;16.23;;;8.50;;
4555;SDS011;2290;48.674;9.018;2023-03-01T10:32:02;14.57;;;8.23;;
4555;SDS011;2290;48.674;9.018;2023-03-01T10:34:32;19.00;;;8.40;;
4555;SDS011;2290;48.674;9.018;2023-03-01T10:37:10;19.87;;;9.20;;
4555;SDS011;2290;48.674;9.018;2023-03-01T10:56:51;17.70;;;7.67;;
4555;SDS011;2290;48.674;9.018;2023-03-01T11:00:02;20.93;;;8.33;;
4555;SDS011;2290;48.674;9.018;2023-03-01T11:05:33;19.90;;;8.27;;
4555;SDS011;2290;48.674;9.018;2023-03-01T11:11:32;21.20;;;9.30;;
4555;SDS011;2290;48.674;9.018;2023-03-01T11:14:46;25.43;;;8.90;;
4555;SDS011;2290;48.674;9.018;2023-03-01T11:18:05;20.03;;;8.70;;
4555;SDS011;2290;48.674;9.018;2023-03-01T11:20:51;18.67;;;8.73;;
4555;SDS011;2290;48.674;9.018;2023-03-01T11:23:20;17.20;;;9.07;;
4555;SDS011;2290;48.674;9.018;2023-03-01T11:25:55;19.77;;;8.80;;
4555;SDS011;2290;48.674;9.018;2023-03-01T11:28:22;19.03;;;8.60;;
4555;SDS011;2290;48.674;9.018;2023-03-01T11:31:10;21.13;;;10.17;;
4555;SDS011;2290;48.674;9.018;2023-03-01T11:33:59;16.77;;;9.03;;
4555;SDS011;2290;48.674;9.018;2023-03-01T11:42:38;22.73;;;9.27;;
4555;SDS011;2290;48.674;9.018;2023-03-01T11:45:11;15.90;;;8.47;;
4555;SDS011;2290;48.674;9.018;2023-03-01T11:47:59;19.37;;;8.60;;
4555;SDS011;2290;48.674;9.018;2023-03-01T11:50:59;19.90;;;9.20;;
4555;SDS011;2290;48.674;9.018;2023-03-01T11:53:34;17.37;;;8.30;;
4555;SDS011;2290;48.674;9.018;2023-03-01T11:56:32;17.40;;;8.33;;
4555;SDS011;2290;48.674;9.018;2023-03-01T12:02:32;18.37;;;9.57;;
4555;SDS011;2290;48.674;9.018;2023-03-01T12:05:33;16.73;;;7.60;;
4555;SDS011;2290;48.674;9.018;2023-03-01T12:11:12;21.40;;;9.17;;
4555;SDS011;2290;48.674;9.018;2023-03-01T12:17:11;19.47;;;9.30;;
4555;SDS011;2290;48.674;9.018;2023-03-01T12:25:20;16.53;;;8.40;;
4555;SDS011;2290;48.674;9.018;2023-03-01T12:30:35;21.00;;;8.67;;
4555;SDS011;2290;48.674;9.018;2023-03-01T12:44:11;20.00;;;9.67;;
4555;SDS011;2290;48.674;9.018;2023-03-01T12:46:56;16.80;;;8.60;;
4555;SDS011;2290;48.674;9.018;2023-03-01T12:49:40;15.50;;;8.10;;
4555;SDS011;2290;48.674;9.018;2023-03-01T12:54:39;17.37;;;8.37;;
4555;SDS011;2290;48.674;9.018;2023-03-01T13:00:05;18.80;;;8.93;;
4555;SDS011;2290;48.674;9.018;2023-03-01T13:02:58;17.17;;;9.23;;
4555;SDS011;2290;48.674;9.018;2023-03-01T13:05:52;17.57;;;9.00;;
4555;SDS011;2290;48.674;9.018;2023-03-01T13:08:38;14.17;;;7.70;;
4555;SDS011;2290;48.674;9.018;2023-03-01T13:11:27;12.37;;;7.57;;
4555;SDS011;2290;48.674;9.018;2023-03-01T13:13:59;15.23;;;8.33;;
4555;SDS011;2290;48.674;9.018;2023-03-01T13:16:47;17.47;;;8.37;;
4555;SDS011;2290;48.674;9.018;2023-03-01T13:19:20;20.97;;;8.97;;
4555;SDS011;2290;48.674;9.018;2023-03-01T13:21:48;16.40;;;8.13;;
4555;SDS011;2290;48.674;9.018;2023-03-01T13:24:29;15.93;;;9.17;;
4555;SDS011;2290;48.674;9.018;2023-03-01T13:29:48;13.43;;;8.13;;
4555;SDS011;2290;48.674;9.018;2023-03-01T13:32:32;17.73;;;7.97;;
4555;SDS011;2290;48.674;9.018;2023-03-01T13:37:40;14.17;;;8.00;;
4555;SDS011;2290;48.674;9.018;2023-03-01T13:42:44;14.40;;;7.07;;
4555;SDS011;2290;48.674;9.018;2023-03-01T13:45:18;17.03;;;8.10;;
4555;SDS011;2290;48.674;9.018;2023-03-01T13:47:44;14.17;;;7.40;;
4555;SDS011;2290;48.674;9.018;2023-03-01T13:50:18;15.50;;;7.97;;
4555;SDS011;2290;48.674;9.018;2023-03-01T13:52:52;13.50;;;6.93;;
4555;SDS011;2290;48.674;9.018;2023-03-01T13:55:23;14.87;;;8.03;;
4555;SDS011;2290;48.674;9.018;2023-03-01T13:57:57;17.03;;;8.30;;
4555;SDS011;2290;48.674;9.018;2023-03-01T14:00:29;14.77;;;7.57;;
4555;SDS011;2290;48.674;9.018;2023-03-01T14:03:01;16.63;;;8.27;;
4555;SDS011;2290;48.674;9.018;2023-03-01T14:05:29;19.30;;;8.80;;
4555;SDS011;2290;48.674;9.018;2023-03-01T14:07:56;14.90;;;6.87;;
4555;SDS011;2290;48.674;9.018;2023-03-01T14:10:22;14.47;;;7.80;;
4555;SDS011;2290;48.674;9.018;2023-03-01T14:16:03;14.20;;;6.93;;
4555;SDS011;2290;48.674;9.018;2023-03-01T14:21:25;16.97;;;8.20;;
4555;SDS011;2290;48.674;9.018;2023-03-01T14:23:51;15.07;;;8.30;;
4555;SDS011;2290;48.674;9.018;2023-03-01T14:26:22;14.13;;;8.47;;
4555;SDS011;2290;48.674;9.018;2023-03-01T14:28:49;18.77;;;9.23;;
4555;SDS011;2290;48.674;9.018;2023-03-01T14:34:01;17.10;;;8.50;;
4555;SDS011;2290;48.674;9.018;2023-03-01T14:36:28;15.17;;;8.20;;
4555;SDS011;2290;48.674;9.018;2023-03-01T14:38:55;20.30;;;9.10;;
4555;SDS011;2290;48.674;9.018;2023-03-01T14:41:25;14.13;;;8.23;;
4555;SDS011;2290;48.674;9.018;2023-03-01T14:43:55;17.07;;;9.40;;
4555;SDS011;2290;48.674;9.018;2023-03-01T14:46:29;15.53;;;8.50;;
4555;SDS011;2290;48.674;9.018;2023-03-01T14:48:58;15.30;;;8.97;;
4555;SDS011;2290;48.674;9.018;2023-03-01T14:51:28;17.97;;;9.30;;
4555;SDS011;2290;48.674;9.018;2023-03-01T14:53:54;15.80;;;9.30;;
4555;SDS011;2290;48.674;9.018;2023-03-01T14:56:20;19.20;;;9.23;;
4555;SDS011;2290;48.674;9.018;2023-03-01T14:58:46;15.60;;;9.27;;
4555;SDS011;2290;48.674;9.018;2023-03-01T15:01:19;19.07;;;9.90;;
4555;SDS011;2290;48.674;9.018;2023-03-01T15:03:48;15.47;;;9.57;;
4555;SDS011;2290;48.674;9.018;2023-03-01T15:06:17;20.13;;;9.73;;
4555;SDS011;2290;48.674;9.018;2023-03-01T15:08:47;15.80;;;8.40;;
4555;SDS011;2290;48.674;9.018;2023-03-01T15:11:20;18.30;;;9.20;;
4555;SDS011;2290;48.674;9.018;2023-03-01T15:13:56;19.10;;;10.03;;
4555;SDS011;2290;48.674;9.018;2023-03-01T15:16:23;19.90;;;10.43;;
4555;SDS011;2290;48.674;9.018;2023-03-01T15:18:58;19.67;;;10.10;;
4555;SDS011;2290;48.674;9.018;2023-03-01T15:21:35;17.77;;;9.93;;
4555;SDS011;2290;48.674;9.018;2023-03-01T15:24:05;18.40;;;10.90;;
4555;SDS011;2290;48.674;9.018;2023-03-01T15:26:44;17.30;;;10.27;;
4555;SDS011;2290;48.674;9.018;2023-03-01T15:29:26;17.90;;;10.10;;
4555;SDS011;2290;48.674;9.018;2023-03-01T15:34:24;21.10;;;9.47;;
4555;SDS011;2290;48.674;9.018;2023-03-01T15:37:03;19.03;;;10.03;;
4555;SDS011;2290;48.674;9.018;2023-03-01T15:42:02;27.23;;;10.80;;
4555;SDS011;2290;48.674;9.018;2023-03-01T15:44:33;16.70;;;9.40;;
4555;SDS011;2290;48.674;9.018;2023-03-01T15:47:04;16.90;;;10.53;;
4555;SDS011;2290;48.674;9.018;2023-03-01T15:49:47;15.03;;;9.30;;
4555;SDS011;2290;48.674;9.018;2023-03-01T15:52:22;17.67;;;10.23;;
4555;SDS011;2290;48.674;9.018;2023-03-01T15:54:56;21.83;;;12.90;;
4555;SDS011;2290;48.674;9.018;2023-03-01T15:57:24;21.30;;;11.37;;
4555;SDS011;2290;48.674;9.018;2023-03-01T15:59:50;19.07;;;11.23;;
4555;SDS011;2290;48.674;9.018;2023-03-01T16:02:15;20.63;;;10.37;;
4555;SDS011;2290;48.674;9.018;2023-03-01T16:04:41;18.30;;;10.10;;
4555;SDS011;2290;48.674;9.018;2023-03-01T16:07:08;20.23;;;9.63;;
4555;SDS011;2290;48.674;9.018;2023-03-01T16:09:34;17.97;;;10.27;;
4555;SDS011;2290;48.674;9.018;2023-03-01T16:12:00;19.17;;;10.33;;
4555;SDS011;2290;48.674;9.018;2023-03-01T16:14:27;18.73;;;9.93;;
4555;SDS011;2290;48.674;9.018;2023-03-01T16:16:53;18.10;;;10.00;;
4555;SDS011;2290;48.674;9.018;2023-03-01T16:19:20;16.37;;;9.40;;
4555;SDS011;2290;48.674;9.018;2023-03-01T16:21:46;21.80;;;10.57;;
4555;SDS011;2290;48.674;9.018;2023-03-01T16:24:14;18.17;;;10.47;;
4555;SDS011;2290;48.674;9.018;2023-03-01T16:26:41;22.70;;;11.70;;
4555;SDS011;2290;48.674;9.018;2023-03-01T16:29:08;13.20;;;8.50;;
4555;SDS011;2290;48.674;9.018;2023-03-01T16:31:35;20.23;;;10.47;;
4555;SDS011;2290;48.674;9.018;2023-03-01T16:34:01;21.00;;;9.53;;
4555;SDS011;2290;48.674;9.018;2023-03-01T16:36:27;19.73;;;9.13;;
4555;SDS011;2290;48.674;9.018;2023-03-01T16:39:00;17.93;;;9.40;;
4555;SDS011;2290;48.674;9.018;2023-03-01T16:41:27;19.57;;;10.77;;
4555;SDS011;2290;48.674;9.018;2023-03-01T16:43:54;21.50;;;8.93;;
4555;SDS011;2290;48.674;9.018;2023-03-01T16:46:22;15.90;;;8.67;;
4555;SDS011;2290;48.674;9.018;2023-03-01T16:48:49;20.80;;;9.50;;
4555;SDS011;2290;48.674;9.018;2023-03-01T16:51:15;18.10;;;8.70;;
4555;SDS011;2290;48.674;9.018;2023-03-01T16:53:43;18.20;;;8.53;;
4555;SDS011;2290;48.674;9.018;2023-03-01T16:56:09;18.23;;;9.20;;
4555;SDS011;2290;48.674;9.018;2023-03-01T16:58:37;18.90;;;9.33;;
4555;SDS011;2290;48.674;9.018;2023-03-01T17:01:05;15.80;;;8.87;;
4555;SDS011;2290;48.674;9.018;2023-03-01T17:03:41;19.30;;;8.63;;
4555;SDS011;2290;48.674;9.018;2023-03-01T17:06:09;13.73;;;7.47;;
4555;SDS011;2290;48.674;9.018;2023-03-01T17:08:37;21.03;;;9.00;;
4555;SDS011;2290;48.674;9.018;2023-03-01T17:11:07;18.60;;;8.20;;
4555;SDS011;2290;48.674;9.018;2023-03-01T17:13:35;24.27;;;9.87;;
4555;SDS011;2290;48.674;9.018;2023-03-01T17:16:05;18.97;;;7.67;;
4555;SDS011;2290;48.674;9.018;2023-03-01T17:18:32;17.63;;;8.20;;